ヨハネスブルグ の空港の天気 - METARとTAF

ヨハネスブルグ/O.R.タンボ国際空港 ( FAOR / JNB ) - 南アフリカ ヨハネスブルグ
飛行場実況気象(Metar)
観測時間08/22 18:30 SAST (08/22 16:30 UTC)
風向・風速南 4m/s
視程10km以上
天気現象
なし
気温15℃
湿度36%
気圧1031hPa
METARFAOR 221630Z 19007KT CAVOK 15/M00 Q1031 NOSIG
過去の天気等 Google飛行場航空写真 Wunderground天気予報

過去48時間のMETAR

飛行場予報(TAF)
発表時間: 8/22 12:00 SAST (8/22 10:00 UTC)
予報対象時間: 22日14時 SAST ~ 23日20時 SAST
風向・風速南 5m/s
視程10km以上
なし
22日19時 SAST ~ 22日21時 SAST に徐々に
風向・風速不定 2m/s
23日9時 SAST ~ 23日11時 SAST に徐々に
風向・風速東南東 5m/s
TAF FAOR 221000Z 2212/2318 19010KT CAVOK TX23/2312Z TN09/2304Z
BECMG 2217/2219 VRB03KT
BECMG 2307/2309 11010KT